sensor_id;sensor_type;location;lat;lon;timestamp;temperature;humidity
30097;DHT22;16915;51.466;3.610;2022-10-31T00:02:29;12.40;99.90
30097;DHT22;16915;51.466;3.610;2022-10-31T00:05:47;12.40;99.90
30097;DHT22;16915;51.466;3.610;2022-10-31T00:12:34;12.40;99.90
30097;DHT22;16915;51.466;3.610;2022-10-31T00:16:03;12.40;99.90
30097;DHT22;16915;51.466;3.610;2022-10-31T00:19:11;12.40;99.90
30097;DHT22;16915;51.466;3.610;2022-10-31T00:22:20;12.40;99.90
30097;DHT22;16915;51.466;3.610;2022-10-31T00:39:17;12.40;99.90
30097;DHT22;16915;51.466;3.610;2022-10-31T00:45:55;12.40;99.90
30097;DHT22;16915;51.466;3.610;2022-10-31T00:49:02;12.40;99.90
30097;DHT22;16915;51.466;3.610;2022-10-31T00:52:37;12.40;99.90
30097;DHT22;16915;51.466;3.610;2022-10-31T00:55:46;12.40;99.90
30097;DHT22;16915;51.466;3.610;2022-10-31T01:03:02;12.40;99.90
30097;DHT22;16915;51.466;3.610;2022-10-31T01:06:15;12.30;99.90
30097;DHT22;16915;51.466;3.610;2022-10-31T01:16:46;12.20;99.90
30097;DHT22;16915;51.466;3.610;2022-10-31T01:24:23;11.90;99.90
30097;DHT22;16915;51.466;3.610;2022-10-31T01:27:53;11.90;99.90
30097;DHT22;16915;51.466;3.610;2022-10-31T01:31:04;11.90;99.90
30097;DHT22;16915;51.466;3.610;2022-10-31T01:34:26;11.90;99.90
30097;DHT22;16915;51.466;3.610;2022-10-31T01:37:35;12.00;99.90
30097;DHT22;16915;51.466;3.610;2022-10-31T01:41:13;11.90;99.90
30097;DHT22;16915;51.466;3.610;2022-10-31T01:48:15;12.00;99.90
30097;DHT22;16915;51.466;3.610;2022-10-31T01:55:16;12.00;99.90
30097;DHT22;16915;51.466;3.610;2022-10-31T01:59:05;11.90;99.90
30097;DHT22;16915;51.466;3.610;2022-10-31T02:02:15;11.80;99.90
30097;DHT22;16915;51.466;3.610;2022-10-31T02:08:56;11.80;99.90
30097;DHT22;16915;51.466;3.610;2022-10-31T02:12:24;11.80;99.90
30097;DHT22;16915;51.466;3.610;2022-10-31T02:18:50;11.70;99.90
30097;DHT22;16915;51.466;3.610;2022-10-31T02:22:26;11.70;99.90
30097;DHT22;16915;51.466;3.610;2022-10-31T02:33:36;11.90;99.90
30097;DHT22;16915;51.466;3.610;2022-10-31T02:50:20;11.80;99.90
30097;DHT22;16915;51.466;3.610;2022-10-31T02:53:38;11.70;99.90
30097;DHT22;16915;51.466;3.610;2022-10-31T03:04:36;11.20;99.90
30097;DHT22;16915;51.466;3.610;2022-10-31T03:11:23;11.30;99.90
30097;DHT22;16915;51.466;3.610;2022-10-31T03:21:57;11.20;99.90
30097;DHT22;16915;51.466;3.610;2022-10-31T03:25:15;11.10;99.90
30097;DHT22;16915;51.466;3.610;2022-10-31T03:32:57;10.90;99.90
30097;DHT22;16915;51.466;3.610;2022-10-31T03:39:15;10.90;99.90
30097;DHT22;16915;51.466;3.610;2022-10-31T03:42:41;10.90;99.90
30097;DHT22;16915;51.466;3.610;2022-10-31T04:00:10;10.60;99.90
30097;DHT22;16915;51.466;3.610;2022-10-31T04:03:37;10.50;99.90
30097;DHT22;16915;51.466;3.610;2022-10-31T04:06:38;10.50;99.90
30097;DHT22;16915;51.466;3.610;2022-10-31T04:10:05;10.40;99.90
30097;DHT22;16915;51.466;3.610;2022-10-31T04:13:29;10.40;99.90
30097;DHT22;16915;51.466;3.610;2022-10-31T04:20:18;10.30;99.90
30097;DHT22;16915;51.466;3.610;2022-10-31T04:27:36;10.40;99.90
30097;DHT22;16915;51.466;3.610;2022-10-31T04:37:49;10.60;99.90
30097;DHT22;16915;51.466;3.610;2022-10-31T04:44:53;10.80;99.90
30097;DHT22;16915;51.466;3.610;2022-10-31T04:51:20;11.00;99.90
30097;DHT22;16915;51.466;3.610;2022-10-31T04:55:06;11.00;99.90
30097;DHT22;16915;51.466;3.610;2022-10-31T05:01:40;10.90;99.90
30097;DHT22;16915;51.466;3.610;2022-10-31T05:08:34;10.70;99.90
30097;DHT22;16915;51.466;3.610;2022-10-31T05:12:10;10.60;99.90
30097;DHT22;16915;51.466;3.610;2022-10-31T05:22:27;10.40;99.90
30097;DHT22;16915;51.466;3.610;2022-10-31T05:26:04;10.30;99.90
30097;DHT22;16915;51.466;3.610;2022-10-31T05:29:41;10.30;99.90
30097;DHT22;16915;51.466;3.610;2022-10-31T05:40:17;10.20;99.90
30097;DHT22;16915;51.466;3.610;2022-10-31T05:46:58;10.20;99.90
30097;DHT22;16915;51.466;3.610;2022-10-31T05:50:30;10.20;99.90
30097;DHT22;16915;51.466;3.610;2022-10-31T05:53:34;10.20;99.90
30097;DHT22;16915;51.466;3.610;2022-10-31T05:56:46;10.10;99.90
30097;DHT22;16915;51.466;3.610;2022-10-31T06:00:02;10.10;99.90
30097;DHT22;16915;51.466;3.610;2022-10-31T06:06:18;10.20;99.90
30097;DHT22;16915;51.466;3.610;2022-10-31T06:09:41;10.20;99.90
30097;DHT22;16915;51.466;3.610;2022-10-31T06:13:20;10.20;99.90
30097;DHT22;16915;51.466;3.610;2022-10-31T06:16:58;10.20;99.90
30097;DHT22;16915;51.466;3.610;2022-10-31T06:20:29;10.10;99.90
30097;DHT22;16915;51.466;3.610;2022-10-31T06:27:21;9.90;99.90
30097;DHT22;16915;51.466;3.610;2022-10-31T06:33:27;10.10;99.90
30097;DHT22;16915;51.466;3.610;2022-10-31T06:44:24;10.30;99.90
30097;DHT22;16915;51.466;3.610;2022-10-31T06:51:41;10.30;99.90
30097;DHT22;16915;51.466;3.610;2022-10-31T07:02:20;10.20;99.90
30097;DHT22;16915;51.466;3.610;2022-10-31T07:09:50;10.30;99.90
30097;DHT22;16915;51.466;3.610;2022-10-31T07:26:33;10.60;99.90
30097;DHT22;16915;51.466;3.610;2022-10-31T07:30:18;10.70;99.90
30097;DHT22;16915;51.466;3.610;2022-10-31T07:33:55;10.70;99.90
30097;DHT22;16915;51.466;3.610;2022-10-31T07:37:33;10.80;99.90
30097;DHT22;16915;51.466;3.610;2022-10-31T07:45:04;10.90;99.90
30097;DHT22;16915;51.466;3.610;2022-10-31T07:48:34;11.00;99.90
30097;DHT22;16915;51.466;3.610;2022-10-31T07:55:45;11.20;99.90
30097;DHT22;16915;51.466;3.610;2022-10-31T08:02:45;11.30;99.90
30097;DHT22;16915;51.466;3.610;2022-10-31T08:13:12;11.50;99.90
30097;DHT22;16915;51.466;3.610;2022-10-31T08:27:19;12.00;99.90
30097;DHT22;16915;51.466;3.610;2022-10-31T08:30:44;12.10;99.90
30097;DHT22;16915;51.466;3.610;2022-10-31T08:34:26;12.30;99.90
30097;DHT22;16915;51.466;3.610;2022-10-31T08:37:13;12.40;99.90
30097;DHT22;16915;51.466;3.610;2022-10-31T08:39:58;12.50;99.90
30097;DHT22;16915;51.466;3.610;2022-10-31T08:46:23;12.60;99.90
30097;DHT22;16915;51.466;3.610;2022-10-31T08:49:43;12.70;99.90
30097;DHT22;16915;51.466;3.610;2022-10-31T08:52:30;12.80;99.90
30097;DHT22;16915;51.466;3.610;2022-10-31T08:55:22;12.80;99.90
30097;DHT22;16915;51.466;3.610;2022-10-31T08:58:01;12.90;99.90
30097;DHT22;16915;51.466;3.610;2022-10-31T09:01:00;12.80;99.90
30097;DHT22;16915;51.466;3.610;2022-10-31T09:04:03;12.80;99.90
30097;DHT22;16915;51.466;3.610;2022-10-31T09:14:07;12.70;99.90
30097;DHT22;16915;51.466;3.610;2022-10-31T09:17:12;12.70;99.90
30097;DHT22;16915;51.466;3.610;2022-10-31T09:23:03;12.80;99.90
30097;DHT22;16915;51.466;3.610;2022-10-31T09:25:29;13.10;99.90
30097;DHT22;16915;51.466;3.610;2022-10-31T09:27:56;13.30;99.90
30097;DHT22;16915;51.466;3.610;2022-10-31T09:30:23;13.50;99.90
30097;DHT22;16915;51.466;3.610;2022-10-31T09:32:56;13.70;99.90
30097;DHT22;16915;51.466;3.610;2022-10-31T09:35:22;13.80;99.90
30097;DHT22;16915;51.466;3.610;2022-10-31T09:37:57;13.80;99.90
30097;DHT22;16915;51.466;3.610;2022-10-31T09:43:34;13.80;99.90
30097;DHT22;16915;51.466;3.610;2022-10-31T09:52:28;13.80;99.90
30097;DHT22;16915;51.466;3.610;2022-10-31T09:55:05;13.80;99.90
30097;DHT22;16915;51.466;3.610;2022-10-31T09:57:36;13.80;99.90
30097;DHT22;16915;51.466;3.610;2022-10-31T10:00:06;13.90;99.90
30097;DHT22;16915;51.466;3.610;2022-10-31T10:02:54;14.00;99.90
30097;DHT22;16915;51.466;3.610;2022-10-31T10:05:48;14.00;99.90
30097;DHT22;16915;51.466;3.610;2022-10-31T10:08:21;14.00;99.90
30097;DHT22;16915;51.466;3.610;2022-10-31T10:10:59;14.10;99.90
30097;DHT22;16915;51.466;3.610;2022-10-31T10:16:56;14.60;99.90
30097;DHT22;16915;51.466;3.610;2022-10-31T10:30:22;14.90;99.90
30097;DHT22;16915;51.466;3.610;2022-10-31T10:32:57;14.80;99.90
30097;DHT22;16915;51.466;3.610;2022-10-31T10:35:33;14.80;99.90
30097;DHT22;16915;51.466;3.610;2022-10-31T10:38:30;14.70;99.90
30097;DHT22;16915;51.466;3.610;2022-10-31T10:41:05;14.80;99.90
30097;DHT22;16915;51.466;3.610;2022-10-31T10:43:36;14.90;99.90
30097;DHT22;16915;51.466;3.610;2022-10-31T10:51:38;15.10;99.90
30097;DHT22;16915;51.466;3.610;2022-10-31T10:54:39;15.20;99.90
30097;DHT22;16915;51.466;3.610;2022-10-31T10:57:42;15.20;99.90
30097;DHT22;16915;51.466;3.610;2022-10-31T11:02:49;15.30;99.90
30097;DHT22;16915;51.466;3.610;2022-10-31T11:08:06;15.30;99.90
30097;DHT22;16915;51.466;3.610;2022-10-31T11:10:38;15.40;99.90
30097;DHT22;16915;51.466;3.610;2022-10-31T11:15:51;15.50;99.90
30097;DHT22;16915;51.466;3.610;2022-10-31T11:18:23;15.50;99.90
30097;DHT22;16915;51.466;3.610;2022-10-31T11:20:52;15.50;99.90
30097;DHT22;16915;51.466;3.610;2022-10-31T11:23:20;15.60;99.90
30097;DHT22;16915;51.466;3.610;2022-10-31T11:25:58;15.60;99.90
30097;DHT22;16915;51.466;3.610;2022-10-31T11:28:26;15.70;99.90
30097;DHT22;16915;51.466;3.610;2022-10-31T11:30:58;15.70;99.90
30097;DHT22;16915;51.466;3.610;2022-10-31T11:33:29;15.90;99.90
30097;DHT22;16915;51.466;3.610;2022-10-31T11:35:56;15.90;99.90
30097;DHT22;16915;51.466;3.610;2022-10-31T11:38:25;15.90;99.90
30097;DHT22;16915;51.466;3.610;2022-10-31T11:41:13;16.00;99.90
30097;DHT22;16915;51.466;3.610;2022-10-31T11:43:47;16.10;99.90
30097;DHT22;16915;51.466;3.610;2022-10-31T11:46:33;16.30;99.90
30097;DHT22;16915;51.466;3.610;2022-10-31T11:48:59;16.40;99.90
30097;DHT22;16915;51.466;3.610;2022-10-31T11:51:33;16.50;99.90
30097;DHT22;16915;51.466;3.610;2022-10-31T11:53:59;17.00;99.90
30097;DHT22;16915;51.466;3.610;2022-10-31T11:56:48;17.60;99.90
30097;DHT22;16915;51.466;3.610;2022-10-31T11:59:25;17.90;99.90
30097;DHT22;16915;51.466;3.610;2022-10-31T12:01:53;18.30;99.90
30097;DHT22;16915;51.466;3.610;2022-10-31T12:04:24;18.50;99.90
30097;DHT22;16915;51.466;3.610;2022-10-31T12:06:53;18.50;99.90
30097;DHT22;16915;51.466;3.610;2022-10-31T12:17:17;17.60;99.90
30097;DHT22;16915;51.466;3.610;2022-10-31T12:20:17;17.40;99.90
30097;DHT22;16915;51.466;3.610;2022-10-31T12:26:06;17.10;99.90
30097;DHT22;16915;51.466;3.610;2022-10-31T12:28:54;17.00;99.90
30097;DHT22;16915;51.466;3.610;2022-10-31T12:39:57;16.70;99.90
30097;DHT22;16915;51.466;3.610;2022-10-31T12:42:48;16.60;99.90
30097;DHT22;16915;51.466;3.610;2022-10-31T12:56:29;16.50;99.90
30097;DHT22;16915;51.466;3.610;2022-10-31T12:59:07;16.40;99.90
30097;DHT22;16915;51.466;3.610;2022-10-31T13:04:42;16.30;99.90
30097;DHT22;16915;51.466;3.610;2022-10-31T13:07:14;16.40;99.90
30097;DHT22;16915;51.466;3.610;2022-10-31T13:12:19;16.40;99.90
30097;DHT22;16915;51.466;3.610;2022-10-31T13:14:55;16.50;99.90
30097;DHT22;16915;51.466;3.610;2022-10-31T13:17:30;16.50;99.90
30097;DHT22;16915;51.466;3.610;2022-10-31T13:20:27;16.50;99.90
30097;DHT22;16915;51.466;3.610;2022-10-31T13:25:42;16.50;99.90
30097;DHT22;16915;51.466;3.610;2022-10-31T13:28:23;16.50;99.90
30097;DHT22;16915;51.466;3.610;2022-10-31T13:30:52;16.50;99.90
30097;DHT22;16915;51.466;3.610;2022-10-31T13:33:24;16.50;99.90
30097;DHT22;16915;51.466;3.610;2022-10-31T13:38:23;16.50;99.90
30097;DHT22;16915;51.466;3.610;2022-10-31T13:48:57;16.50;99.90
30097;DHT22;16915;51.466;3.610;2022-10-31T13:51:31;16.50;99.90
30097;DHT22;16915;51.466;3.610;2022-10-31T13:54:19;16.50;99.90
30097;DHT22;16915;51.466;3.610;2022-10-31T13:56:49;16.40;99.90
30097;DHT22;16915;51.466;3.610;2022-10-31T14:01:51;16.30;99.90
30097;DHT22;16915;51.466;3.610;2022-10-31T14:04:44;16.20;99.90
30097;DHT22;16915;51.466;3.610;2022-10-31T14:07:07;16.20;99.90
30097;DHT22;16915;51.466;3.610;2022-10-31T14:12:41;16.20;99.90
30097;DHT22;16915;51.466;3.610;2022-10-31T14:15:18;16.20;99.90
30097;DHT22;16915;51.466;3.610;2022-10-31T14:18:00;16.20;99.90
30097;DHT22;16915;51.466;3.610;2022-10-31T14:23:34;16.30;99.90
30097;DHT22;16915;51.466;3.610;2022-10-31T14:31:42;16.50;99.90
30097;DHT22;16915;51.466;3.610;2022-10-31T14:34:39;16.50;99.90
30097;DHT22;16915;51.466;3.610;2022-10-31T14:50:50;16.60;99.90
30097;DHT22;16915;51.466;3.610;2022-10-31T14:55:53;16.70;99.90
30097;DHT22;16915;51.466;3.610;2022-10-31T15:00:58;16.70;99.90
30097;DHT22;16915;51.466;3.610;2022-10-31T15:03:33;16.60;99.90
30097;DHT22;16915;51.466;3.610;2022-10-31T15:06:04;16.60;99.90
30097;DHT22;16915;51.466;3.610;2022-10-31T15:08:43;16.60;99.90
30097;DHT22;16915;51.466;3.610;2022-10-31T15:11:12;16.60;99.90
30097;DHT22;16915;51.466;3.610;2022-10-31T15:13:50;16.50;99.90
30097;DHT22;16915;51.466;3.610;2022-10-31T15:16:21;16.50;99.90
30097;DHT22;16915;51.466;3.610;2022-10-31T15:18:58;16.40;99.90
30097;DHT22;16915;51.466;3.610;2022-10-31T15:21:26;16.30;99.90
30097;DHT22;16915;51.466;3.610;2022-10-31T15:23:55;16.30;99.90
30097;DHT22;16915;51.466;3.610;2022-10-31T15:26:31;16.20;99.90
30097;DHT22;16915;51.466;3.610;2022-10-31T15:29:18;16.20;99.90
30097;DHT22;16915;51.466;3.610;2022-10-31T15:31:53;16.20;99.90
30097;DHT22;16915;51.466;3.610;2022-10-31T15:34:43;16.10;99.90
30097;DHT22;16915;51.466;3.610;2022-10-31T15:37:12;16.00;99.90
30097;DHT22;16915;51.466;3.610;2022-10-31T15:39:39;16.00;99.90
30097;DHT22;16915;51.466;3.610;2022-10-31T15:42:21;15.90;99.90
30097;DHT22;16915;51.466;3.610;2022-10-31T15:44:54;15.90;99.90
30097;DHT22;16915;51.466;3.610;2022-10-31T15:47:22;15.90;99.90
30097;DHT22;16915;51.466;3.610;2022-10-31T15:49:57;15.80;99.90
30097;DHT22;16915;51.466;3.610;2022-10-31T15:52:45;15.80;99.90
30097;DHT22;16915;51.466;3.610;2022-10-31T15:55:24;15.80;99.90
30097;DHT22;16915;51.466;3.610;2022-10-31T15:57:56;15.80;99.90
30097;DHT22;16915;51.466;3.610;2022-10-31T16:00:26;15.80;99.90
30097;DHT22;16915;51.466;3.610;2022-10-31T16:03:18;15.70;99.90
30097;DHT22;16915;51.466;3.610;2022-10-31T16:05:51;15.70;99.90
30097;DHT22;16915;51.466;3.610;2022-10-31T16:08:34;15.60;99.90
30097;DHT22;16915;51.466;3.610;2022-10-31T16:13:37;15.50;99.90
30097;DHT22;16915;51.466;3.610;2022-10-31T16:16:12;15.40;99.90
30097;DHT22;16915;51.466;3.610;2022-10-31T16:18:41;15.30;99.90
30097;DHT22;16915;51.466;3.610;2022-10-31T16:21:08;15.30;99.90
30097;DHT22;16915;51.466;3.610;2022-10-31T16:23:34;15.20;99.90
30097;DHT22;16915;51.466;3.610;2022-10-31T16:26:00;15.20;99.90
30097;DHT22;16915;51.466;3.610;2022-10-31T16:28:36;15.10;99.90
30097;DHT22;16915;51.466;3.610;2022-10-31T16:31:13;15.10;99.90
30097;DHT22;16915;51.466;3.610;2022-10-31T16:33:39;15.00;99.90
30097;DHT22;16915;51.466;3.610;2022-10-31T16:36:34;15.00;99.90
30097;DHT22;16915;51.466;3.610;2022-10-31T16:39:03;14.90;99.90
30097;DHT22;16915;51.466;3.610;2022-10-31T16:41:29;14.90;99.90
30097;DHT22;16915;51.466;3.610;2022-10-31T16:43:55;14.80;99.90
30097;DHT22;16915;51.466;3.610;2022-10-31T16:46:24;14.70;99.90
30097;DHT22;16915;51.466;3.610;2022-10-31T16:48:50;14.70;99.90
30097;DHT22;16915;51.466;3.610;2022-10-31T16:51:15;14.70;99.90
30097;DHT22;16915;51.466;3.610;2022-10-31T16:53:41;14.70;99.90
30097;DHT22;16915;51.466;3.610;2022-10-31T16:56:14;14.80;99.90
30097;DHT22;16915;51.466;3.610;2022-10-31T16:58:40;14.80;99.90
30097;DHT22;16915;51.466;3.610;2022-10-31T17:01:06;14.90;99.90
30097;DHT22;16915;51.466;3.610;2022-10-31T17:03:33;14.90;99.90
30097;DHT22;16915;51.466;3.610;2022-10-31T17:05:58;15.00;99.90
30097;DHT22;16915;51.466;3.610;2022-10-31T17:08:24;15.00;99.90
30097;DHT22;16915;51.466;3.610;2022-10-31T17:10:51;15.10;99.90
30097;DHT22;16915;51.466;3.610;2022-10-31T17:13:21;15.10;99.90
30097;DHT22;16915;51.466;3.610;2022-10-31T17:15:51;15.20;99.90
30097;DHT22;16915;51.466;3.610;2022-10-31T17:18:18;15.20;99.90
30097;DHT22;16915;51.466;3.610;2022-10-31T17:20:44;15.30;99.90
30097;DHT22;16915;51.466;3.610;2022-10-31T17:23:11;15.30;99.90
30097;DHT22;16915;51.466;3.610;2022-10-31T17:25:37;15.40;99.90
30097;DHT22;16915;51.466;3.610;2022-10-31T17:28:07;15.50;99.90
30097;DHT22;16915;51.466;3.610;2022-10-31T17:30:36;15.50;99.90
30097;DHT22;16915;51.466;3.610;2022-10-31T17:33:02;15.60;99.90
30097;DHT22;16915;51.466;3.610;2022-10-31T17:35:27;15.60;99.90
30097;DHT22;16915;51.466;3.610;2022-10-31T17:37:53;15.60;99.90
30097;DHT22;16915;51.466;3.610;2022-10-31T17:40:20;15.60;99.90
30097;DHT22;16915;51.466;3.610;2022-10-31T17:42:54;15.60;99.90
30097;DHT22;16915;51.466;3.610;2022-10-31T17:45:23;15.60;99.90
30097;DHT22;16915;51.466;3.610;2022-10-31T17:47:50;15.50;99.90
30097;DHT22;16915;51.466;3.610;2022-10-31T17:50:22;15.50;99.90
30097;DHT22;16915;51.466;3.610;2022-10-31T17:52:48;15.50;99.90
30097;DHT22;16915;51.466;3.610;2022-10-31T17:55:14;15.30;99.90
30097;DHT22;16915;51.466;3.610;2022-10-31T17:57:40;15.30;99.90
30097;DHT22;16915;51.466;3.610;2022-10-31T18:00:08;15.20;99.90
30097;DHT22;16915;51.466;3.610;2022-10-31T18:02:35;15.10;99.90
30097;DHT22;16915;51.466;3.610;2022-10-31T18:05:02;15.10;99.90
30097;DHT22;16915;51.466;3.610;2022-10-31T18:07:30;15.10;99.90
30097;DHT22;16915;51.466;3.610;2022-10-31T18:09:55;15.10;99.90
30097;DHT22;16915;51.466;3.610;2022-10-31T18:12:21;15.10;99.90
30097;DHT22;16915;51.466;3.610;2022-10-31T18:14:46;15.00;99.90
30097;DHT22;16915;51.466;3.610;2022-10-31T18:17:12;15.00;99.90
30097;DHT22;16915;51.466;3.610;2022-10-31T18:19:37;15.10;99.90
30097;DHT22;16915;51.466;3.610;2022-10-31T18:22:03;15.10;99.90
30097;DHT22;16915;51.466;3.610;2022-10-31T18:24:29;15.10;99.90
30097;DHT22;16915;51.466;3.610;2022-10-31T18:26:55;15.10;99.90
30097;DHT22;16915;51.466;3.610;2022-10-31T18:29:20;15.10;99.90
30097;DHT22;16915;51.466;3.610;2022-10-31T18:31:46;15.10;99.90
30097;DHT22;16915;51.466;3.610;2022-10-31T18:34:26;15.10;99.90
30097;DHT22;16915;51.466;3.610;2022-10-31T18:36:51;15.10;99.90
30097;DHT22;16915;51.466;3.610;2022-10-31T18:39:17;15.10;99.90
30097;DHT22;16915;51.466;3.610;2022-10-31T18:41:43;15.20;99.90
30097;DHT22;16915;51.466;3.610;2022-10-31T18:44:09;15.20;99.90
30097;DHT22;16915;51.466;3.610;2022-10-31T18:46:35;15.20;99.90
30097;DHT22;16915;51.466;3.610;2022-10-31T18:49:02;15.20;99.90
30097;DHT22;16915;51.466;3.610;2022-10-31T18:51:28;15.20;99.90
30097;DHT22;16915;51.466;3.610;2022-10-31T18:53:58;15.20;99.90
30097;DHT22;16915;51.466;3.610;2022-10-31T18:56:24;15.10;99.90
30097;DHT22;16915;51.466;3.610;2022-10-31T18:58:50;15.20;99.90
30097;DHT22;16915;51.466;3.610;2022-10-31T19:01:17;15.10;99.90
30097;DHT22;16915;51.466;3.610;2022-10-31T19:03:43;15.10;99.90
30097;DHT22;16915;51.466;3.610;2022-10-31T19:06:10;15.10;99.90
30097;DHT22;16915;51.466;3.610;2022-10-31T19:08:37;15.10;99.90
30097;DHT22;16915;51.466;3.610;2022-10-31T19:11:05;15.10;99.90
30097;DHT22;16915;51.466;3.610;2022-10-31T19:13:32;15.10;99.90
30097;DHT22;16915;51.466;3.610;2022-10-31T19:16:06;15.10;99.90
30097;DHT22;16915;51.466;3.610;2022-10-31T19:18:34;15.10;99.90
30097;DHT22;16915;51.466;3.610;2022-10-31T19:21:05;15.10;99.90
30097;DHT22;16915;51.466;3.610;2022-10-31T19:23:31;15.10;99.90
30097;DHT22;16915;51.466;3.610;2022-10-31T19:25:58;15.10;99.90
30097;DHT22;16915;51.466;3.610;2022-10-31T19:28:31;15.10;99.90
30097;DHT22;16915;51.466;3.610;2022-10-31T19:30:58;15.10;99.90
30097;DHT22;16915;51.466;3.610;2022-10-31T19:33:24;15.10;99.90
30097;DHT22;16915;51.466;3.610;2022-10-31T19:35:51;15.10;99.90
30097;DHT22;16915;51.466;3.610;2022-10-31T19:38:17;15.10;99.90
30097;DHT22;16915;51.466;3.610;2022-10-31T19:40:42;15.20;99.90
30097;DHT22;16915;51.466;3.610;2022-10-31T19:43:08;15.10;99.90
30097;DHT22;16915;51.466;3.610;2022-10-31T19:45:34;15.10;99.90
30097;DHT22;16915;51.466;3.610;2022-10-31T19:47:59;15.20;99.90
30097;DHT22;16915;51.466;3.610;2022-10-31T19:50:26;15.10;99.90
30097;DHT22;16915;51.466;3.610;2022-10-31T19:52:53;15.10;99.90
30097;DHT22;16915;51.466;3.610;2022-10-31T19:55:18;15.10;99.90
30097;DHT22;16915;51.466;3.610;2022-10-31T19:57:44;15.10;99.90
30097;DHT22;16915;51.466;3.610;2022-10-31T20:00:10;15.10;99.90
30097;DHT22;16915;51.466;3.610;2022-10-31T20:02:36;15.00;99.90
30097;DHT22;16915;51.466;3.610;2022-10-31T20:05:02;15.00;99.90
30097;DHT22;16915;51.466;3.610;2022-10-31T20:07:27;15.10;99.90
30097;DHT22;16915;51.466;3.610;2022-10-31T20:09:53;15.00;99.90
30097;DHT22;16915;51.466;3.610;2022-10-31T20:12:19;15.00;99.90
30097;DHT22;16915;51.466;3.610;2022-10-31T20:14:44;15.00;99.90
30097;DHT22;16915;51.466;3.610;2022-10-31T20:17:11;15.10;99.90
30097;DHT22;16915;51.466;3.610;2022-10-31T20:19:37;15.10;99.90
30097;DHT22;16915;51.466;3.610;2022-10-31T20:22:03;15.10;99.90
30097;DHT22;16915;51.466;3.610;2022-10-31T20:24:31;15.20;99.90
30097;DHT22;16915;51.466;3.610;2022-10-31T20:26:58;15.30;99.90
30097;DHT22;16915;51.466;3.610;2022-10-31T20:29:23;15.30;99.90
30097;DHT22;16915;51.466;3.610;2022-10-31T20:31:49;15.30;99.90
30097;DHT22;16915;51.466;3.610;2022-10-31T20:34:15;15.40;99.90
30097;DHT22;16915;51.466;3.610;2022-10-31T20:36:40;15.50;99.90
30097;DHT22;16915;51.466;3.610;2022-10-31T20:39:08;15.50;99.90
30097;DHT22;16915;51.466;3.610;2022-10-31T20:41:35;15.60;99.90
30097;DHT22;16915;51.466;3.610;2022-10-31T20:44:02;15.70;99.90
30097;DHT22;16915;51.466;3.610;2022-10-31T20:46:27;15.70;99.90
30097;DHT22;16915;51.466;3.610;2022-10-31T20:48:53;15.70;99.90
30097;DHT22;16915;51.466;3.610;2022-10-31T20:54:44;15.60;99.90
30097;DHT22;16915;51.466;3.610;2022-10-31T21:07:31;15.80;99.90
30097;DHT22;16915;51.466;3.610;2022-10-31T21:10:01;15.70;99.90
30097;DHT22;16915;51.466;3.610;2022-10-31T21:12:29;15.60;99.90
30097;DHT22;16915;51.466;3.610;2022-10-31T21:14:58;15.50;99.90
30097;DHT22;16915;51.466;3.610;2022-10-31T21:17:24;15.50;99.90
30097;DHT22;16915;51.466;3.610;2022-10-31T21:19:49;15.50;99.90
30097;DHT22;16915;51.466;3.610;2022-10-31T21:22:16;15.50;99.90
30097;DHT22;16915;51.466;3.610;2022-10-31T21:24:44;15.50;99.90
30097;DHT22;16915;51.466;3.610;2022-10-31T21:27:10;15.50;99.90
30097;DHT22;16915;51.466;3.610;2022-10-31T21:29:36;15.50;99.90
30097;DHT22;16915;51.466;3.610;2022-10-31T21:32:02;15.50;99.90
30097;DHT22;16915;51.466;3.610;2022-10-31T21:34:34;15.50;99.90
30097;DHT22;16915;51.466;3.610;2022-10-31T21:40:21;15.50;99.90
30097;DHT22;16915;51.466;3.610;2022-10-31T21:42:47;15.50;99.90
30097;DHT22;16915;51.466;3.610;2022-10-31T21:45:12;15.50;99.90
30097;DHT22;16915;51.466;3.610;2022-10-31T21:50:42;15.60;99.90
30097;DHT22;16915;51.466;3.610;2022-10-31T21:53:38;15.60;99.90
30097;DHT22;16915;51.466;3.610;2022-10-31T21:56:26;15.70;99.90
30097;DHT22;16915;51.466;3.610;2022-10-31T22:03:00;15.90;99.90
30097;DHT22;16915;51.466;3.610;2022-10-31T22:05:47;16.00;99.90
30097;DHT22;16915;51.466;3.610;2022-10-31T22:08:13;16.00;99.90
30097;DHT22;16915;51.466;3.610;2022-10-31T22:10:38;16.00;99.90
30097;DHT22;16915;51.466;3.610;2022-10-31T22:13:04;16.00;99.90
30097;DHT22;16915;51.466;3.610;2022-10-31T22:15:32;16.00;99.90
30097;DHT22;16915;51.466;3.610;2022-10-31T22:17:59;16.00;99.90
30097;DHT22;16915;51.466;3.610;2022-10-31T22:20:24;15.90;99.90
30097;DHT22;16915;51.466;3.610;2022-10-31T22:22:50;15.90;99.90
30097;DHT22;16915;51.466;3.610;2022-10-31T22:25:17;15.80;99.90
30097;DHT22;16915;51.466;3.610;2022-10-31T22:27:42;15.70;99.90
30097;DHT22;16915;51.466;3.610;2022-10-31T22:30:10;15.70;99.90
30097;DHT22;16915;51.466;3.610;2022-10-31T22:32:42;15.70;99.90
30097;DHT22;16915;51.466;3.610;2022-10-31T22:35:32;15.70;99.90
30097;DHT22;16915;51.466;3.610;2022-10-31T22:41:57;16.00;99.90
30097;DHT22;16915;51.466;3.610;2022-10-31T22:45:03;16.10;99.90
30097;DHT22;16915;51.466;3.610;2022-10-31T22:48:14;16.10;99.90
30097;DHT22;16915;51.466;3.610;2022-10-31T22:55:02;16.20;99.90
30097;DHT22;16915;51.466;3.610;2022-10-31T22:57:52;16.30;99.90
30097;DHT22;16915;51.466;3.610;2022-10-31T23:01:17;16.30;99.90
30097;DHT22;16915;51.466;3.610;2022-10-31T23:04:21;16.30;99.90
30097;DHT22;16915;51.466;3.610;2022-10-31T23:07:25;16.30;99.90
30097;DHT22;16915;51.466;3.610;2022-10-31T23:10:34;16.30;99.90
30097;DHT22;16915;51.466;3.610;2022-10-31T23:13:29;16.30;99.90
30097;DHT22;16915;51.466;3.610;2022-10-31T23:16:17;16.40;99.90
30097;DHT22;16915;51.466;3.610;2022-10-31T23:18:43;16.40;99.90
30097;DHT22;16915;51.466;3.610;2022-10-31T23:21:08;16.40;99.90
30097;DHT22;16915;51.466;3.610;2022-10-31T23:24:11;16.50;99.90
30097;DHT22;16915;51.466;3.610;2022-10-31T23:26:46;16.50;99.90
30097;DHT22;16915;51.466;3.610;2022-10-31T23:29:30;16.50;99.90
30097;DHT22;16915;51.466;3.610;2022-10-31T23:32:32;16.40;99.90
30097;DHT22;16915;51.466;3.610;2022-10-31T23:39:09;16.40;99.90
30097;DHT22;16915;51.466;3.610;2022-10-31T23:42:35;16.40;99.90
30097;DHT22;16915;51.466;3.610;2022-10-31T23:45:49;16.40;99.90
30097;DHT22;16915;51.466;3.610;2022-10-31T23:49:33;16.40;99.90
30097;DHT22;16915;51.466;3.610;2022-10-31T23:52:39;16.40;99.90
